Terminal Aerodrome Forecast
Issued by NWS

Home | Current Version | Previous Version | Text Only | Print | Product List | Glossary On
Versions: 1 2 3 4 5 6 7 8 9 10 11 12 13 14
225
FTUS43 KBIS 221734
TAFDIK
TAF
KDIK 221734Z 2218/2318 16007KT P6SM BKN120
     FM222300 13008KT P6SM VCTS SCT070CB BKN120
     FM230200 10008KT P6SM SCT060 BKN150
     FM230500 13007KT P6SM VCTS SCT060CB BKN150
     FM231200 10008KT P6SM SCT045 BKN140
     FM231500 11013KT P6SM VCTS BKN025CB OVC035=

USA.gov is the U.S. government's official web portal to all federal, state and local government web resources and services.